Startseite
Über Mich
AHP4
Galerie
Sehschlangen
Tourenbuch
Bookmarks
Elektronik
Bewertung
Geschichten
[Tagesmessung] [Jahreswerte] [Information]

Messwerte vom 04.06.2022

Die letzten Messwerte von 23:58:47 Uhr:
KategorieMesswert
Temperatur [°C]15
Luftdruck [mBar]1005
Sonneneinstrahlung0
Wind [km/h]2 aus Nord
Niederschlag [l/m²]0
rel.Luftfeucht.70.9%
CO2 [ppm]677

Diagramme
Messwerte vom 04.06.2022
Tagesaggregation
KategorieMinimumMaximumSchnittSumme
Temperatur [°C]122918.8583
Luftdruck [mBar]100210061004.1292
Sonneneinstrahlung247143.2563
Wind [km/h]13
rF [%]33.380.758.12
Niederschlag [l/m²]0
CO2 [ppm]415820637.2
Einordnung alsVegetationstag
Sommertag

Messungen an benachbarten Tagen: Zur Jahresaggregation 2022
Tabelle aller Messwerte
UhrzeitTemperatur [°C]Luftdruck [mBar]SonneWind [km/h]RichtungRegen [l/m²]rF [%]CO2 [ppm]
00:01:48 17 1002 0 11 NW 0 59.5 580
00:04:48 17 1002 0 5 NW 0 60.3 588
00:07:47 17 1002 0 6 0 60.6 603
00:10:47 17 1002 0 7 NO 0 61.5 615
00:13:48 17 1002 0 5 NO 0 62 612
00:16:47 17 1002 0 7 SO 0 62.3 618
00:19:50 17 1002 0 4 NO 0 63.2 628
00:22:47 17 1003 0 4 NW 0 63.4 632
00:25:46 16 1002 0 2 N 0 64.6 630
00:28:46 16 1002 0 3 N 0 65 635
00:31:47 16 1002 0 3 O 0 65.4 633
00:34:48 16 1002 0 3 NW 0 66.2 627
00:37:48 16 1002 0 6 SO 0 67.1 622
00:40:49 16 1003 0 3 NO 0 67.5 627
00:43:47 16 1002 0 6 N 0 67.8 626
00:46:50 16 1002 0 0 SO 0 68.3 626
00:49:49 16 1002 0 3 N 0 68.6 624
00:52:48 16 1002 0 3 SO 0 68.8 626
00:55:45 16 1003 0 3 0 69.3 626
00:58:48 16 1002 0 3 N 0 69.2 620
01:01:46 16 1002 0 1 O 0 69.3 625
01:04:47 16 1002 0 4 N 0 69.7 615
01:07:48 16 1002 0 3 NO 0 70 627
01:10:49 15 1002 0 1 NW 0 70.2 620
01:13:45 15 1003 0 0 O 0 70.4 620
01:16:45 15 1002 0 2 N 0 70.3 619
01:19:46 15 1002 0 1 NO 0 71 618
01:22:48 15 1003 0 0 SO 0 70.8 618
01:25:48 15 1002 0 0 NO 0 71.3 620
01:28:48 15 1002 0 2 NW 0 71.4 623
01:31:45 15 1002 0 2 S 0 71.4 624
01:34:46 15 1002 0 3 O 0 71.8 632
01:37:47 15 1002 0 0 NO 0 71.9 631
01:40:48 15 1002 0 4 NO 0 72 633
01:43:48 15 1002 0 3 NW 0 72.4 629
01:46:49 15 1002 0 5 NO 0 72.9 636
01:49:49 15 1002 0 5 N 0 73 642
01:52:45 15 1002 0 2 N 0 73 646
01:55:45 15 1003 0 4 W 0 73.1 647
01:58:45 15 1002 0 0 O 0 73.1 650
02:01:47 15 1002 0 1 NO 0 72.9 647
02:04:49 15 1002 0 6 NO 0 73 653
02:07:48 15 1002 0 6 NW 0 73.3 651
02:10:47 15 1002 0 5 NO 0 73.5 653
02:13:48 15 1002 0 4 NO 0 73.5 659
02:16:45 15 1002 0 4 N 0 73.6 656
02:19:49 15 1002 0 2 NW 0 73.6 656
02:22:48 14 1002 0 4 SO 0 73.5 659
02:25:50 14 1002 0 8 NO 0 73.5 661
02:28:49 14 1002 0 3 NO 0 73.2 661
02:31:47 14 1002 0 3 NO 0 73.3 666
02:34:50 14 1002 0 9 SO 0 73.5 669
02:37:47 14 1002 0 2 NO 0 73.5 675
02:40:46 14 1002 0 0 N 0 73.5 671
02:43:48 14 1002 0 2 SO 0 73.6 679
02:46:50 14 1002 0 3 NW 0 74 679
02:49:48 14 1002 0 2 NO 0 74.2 684
02:52:45 14 1003 0 8 N 0 74.7 685
02:55:48 14 1002 0 3 NW 0 75.1 689
02:58:48 14 1002 0 1 O 0 75 688
03:01:46 14 1002 0 1 S 0 75.2 691
03:04:49 14 1002 0 2 N 0 75 692
03:07:44 14 1003 0 2 N 0 75.7 693
03:10:47 14 1002 0 1 NO 0 76.3 691
03:13:46 14 1003 0 3 N 0 76.1 688
03:16:29 13 1002 0 1 O 0 68 692
03:19:45 13 1003 0 2 NO 0 76.5 700
03:22:46 14 1003 0 4 N 0 77.4 702
03:25:47 14 1002 0 1 N 0 77.2 704
03:28:48 13 1002 0 3 N 0 76.9 700
03:31:45 13 1002 0 1 S 0 76.8 702
03:34:47 13 1002 0 1 SO 0 76.6 708
03:37:48 13 1002 0 2 NW 0 76.6 709
03:40:47 13 1002 0 5 NO 0 76.6 712
03:43:44 13 1002 0 1 O 0 77 713
03:46:48 13 1002 0 3 NW 0 77.2 717
03:49:47 13 1002 0 3 O 0 77.2 717
03:52:45 13 1002 0 2 N 0 77.5 718
03:55:47 13 1003 0 3 NO 0 77.6 718
03:58:47 13 1003 0 1 NO 0 77.6 724
04:01:48 13 1002 0 2 SW 0 78 714
04:04:46 13 1002 0 0 O 0 77.9 711
04:07:46 13 1002 0 1 SO 0 78.3 706
04:10:47 13 1002 0 5 N 0 78.4 718
04:13:50 13 1002 0 1 NO 0 79 720
04:16:48 13 1002 0 2 N 0 79.2 723
04:19:46 13 1002 0 3 N 0 79.1 723
04:22:49 13 1002 0 0 NW 0 78.8 728
04:25:45 13 1002 0 5 0 78.4 723
04:28:47 13 1002 4 2 NO 0 78.8 723
04:31:47 13 1002 5 2 N 0 79.1 729
04:34:46 13 1003 7 2 NO 0 79.1 732
04:37:49 12 1002 10 4 NO 0 79.8 727
04:40:47 13 1002 13 3 N 0 80.1 725
04:43:48 13 1003 18 3 N 0 80.1 718
04:46:48 13 1002 24 3 NW 0 80.2 718
04:49:48 13 1002 31 1 N 0 80.2 712
04:52:48 12 1003 38 1 NO 0 80.4 721
04:55:49 12 1002 44 2 N 0 80.3 730
04:58:47 12 1003 49 4 NO 0 80.2 736
05:01:48 12 1003 56 0 S 0 80.6 734
05:04:47 12 1003 63 4 N 0 80.7 733
05:07:49 12 1002 70 3 NW 0 80.7 727
05:10:48 12 1003 76 2 O 0 80.4 724
05:13:46 12 1003 86 0 0 80.3 734
05:16:48 12 1003 92 4 NO 0 80.6 735
05:19:47 12 1003 97 7 NW 0 80.6 729
05:22:48 12 1003 102 2 N 0 80.3 726
05:25:47 12 1002 109 5 N 0 79.9 729
05:28:47 12 1003 114 6 N 0 80.1 732
05:31:49 12 1002 121 3 NO 0 80.1 744
05:34:50 12 1003 128 6 NO 0 80.3 736
05:37:50 12 1003 133 1 W 0 80.2 738
05:40:49 12 1003 139 5 N 0 80 739
05:43:50 12 1002 144 0 SO 0 79.7 741
05:46:48 12 1003 149 0 W 0 79.5 741
05:49:47 12 1003 154 0 O 0 79.3 743
05:52:47 12 1003 158 0 N 0 79.4 744
05:55:49 12 1003 162 1 O 0 79.8 743
05:58:47 12 1003 165 2 N 0 79.7 744
06:01:48 12 1003 168 2 N 0 79.7 741
06:04:50 12 1002 170 1 NO 0 79.6 747
06:07:47 12 1002 172 0 N 0 79.4 746
06:10:47 12 1003 174 1 NO 0 79.3 744
06:13:48 12 1003 176 0 SO 0 79.4 749
06:16:49 12 1003 178 1 NO 0 79.3 745
06:19:46 12 1003 178 3 N 0 79.5 743
06:22:49 12 1003 178 2 SO 0 79.5 741
06:25:48 12 1003 178 2 NW 0 79.5 744
06:28:48 12 1003 178 3 NO 0 78.8 748
06:31:47 12 1003 178 1 O 0 78.5 751
06:34:50 12 1003 179 2 SO 0 77.9 745
06:37:48 12 1002 181 0 NO 0 77.6 747
06:40:46 12 1003 182 2 N 0 77.3 744
06:43:49 12 1003 182 0 N 0 77.2 743
06:46:47 13 1003 183 0 NO 0 77.4 747
06:49:49 13 1002 185 3 NO 0 76.9 753
06:52:49 13 1003 186 3 NO 0 76.3 753
06:55:50 13 1003 188 1 SO 0 75.8 756
06:58:47 13 1003 190 4 O 0 75.2 762
07:01:48 13 1003 191 1 SO 0 74.2 751
07:04:47 13 1003 190 1 O 0 73.9 750
07:07:46 13 1003 191 4 NO 0 74.2 750
07:10:46 13 1003 191 0 N 0 74 751
07:13:47 13 1004 191 1 SO 0 74.3 753
07:16:48 14 1004 189 1 NO 0 73.7 756
07:19:51 14 1003 188 3 O 0 72.5 757
07:22:47 14 1003 190 1 W 0 71.9 756
07:25:44 14 1003 190 1 N 0 71.9 747
07:28:49 14 1003 194 5 NO 0 72.2 752
07:31:47 14 1003 197 1 N 0 71.8 753
07:34:50 14 1003 198 5 0 71.8 753
07:37:51 15 1003 199 3 N 0 70.3 753
07:40:49 14 1002 199 1 N 0 69.6 760
07:43:48 14 1003 199 2 O 0 69.3 759
07:46:47 14 1004 200 1 O 0 69.5 761
07:49:48 15 1003 201 6 NO 0 69.8 770
07:52:49 16 1004 203 2 O 0 67.7 768
07:55:47 17 1003 204 3 NO 0 66.6 767
07:58:47 17 1003 206 8 N 0 61.1 766
08:01:50 16 1003 207 2 N 0 61 768
08:04:47 16 1004 210 5 NO 0 61.4 777
08:07:47 16 1004 211 1 0 62.1 777
08:10:46 16 1004 211 4 N 0 63 779
08:13:49 16 1004 211 4 NO 0 64.1 776
08:16:47 16 1004 211 6 N 0 63.8 779
08:19:49 16 1004 212 3 NW 0 63.8 775
08:22:50 16 1004 213 2 N 0 63.6 780
08:25:50 16 1004 214 2 N 0 63.6 782
08:28:48 16 1004 213 1 NO 0 63.6 773
08:31:49 16 1005 212 0 SO 0 64 770
08:34:49 17 1004 210 4 NO 0 63.6 765
08:37:48 16 1004 209 4 O 0 63.1 767
08:40:48 16 1004 209 6 NO 0 62.9 765
08:43:49 16 1003 208 3 N 0 62.1 783
08:46:48 16 1005 209 4 N 0 61.5 794
08:49:48 16 1005 207 3 NO 0 61.4 797
08:52:50 17 1003 206 6 NW 0 61.8 794
08:55:47 17 1004 205 2 NO 0 62.6 794
08:58:48 17 1004 204 5 N 0 62.4 800
09:01:50 17 1004 201 8 NO 0 61.8 803
09:04:49 17 1004 199 5 NO 0 62.3 805
09:07:48 17 1004 197 3 N 0 62.1 803
09:10:50 17 1004 197 6 NW 0 61.5 810
09:13:49 17 1005 196 6 N 0 62.3 817
09:16:34 16 1005 195 4 N 0 54.5 820
09:19:48 17 1005 194 0 O 0 60.7 817
09:22:50 17 1005 194 7 N 0 62.6 808
09:25:50 17 1005 194 9 NW 0 62.4 803
09:28:45 17 1005 195 7 N 0 61.5 790
09:31:48 17 1004 161 7 N 0 61.6 785
09:34:48 17 1005 160 13 N 0 60.9 665
09:37:51 17 1004 162 7 NW 0 61.4 586
09:40:47 17 1005 163 5 0 61.2 571
09:43:47 17 1005 162 8 N 0 61.2 648
09:46:45 17 1005 197 5 W 0 60.3 677
09:49:51 17 1005 198 4 NO 0 60.4 630
09:52:48 18 1005 200 5 N 0 60.5 609
09:55:49 18 1006 200 3 SW 0 61 629
09:58:48 18 1004 201 11 NO 0 60.9 661
10:01:50 18 1005 201 12 NO 0 58.8 669
10:04:50 18 1005 200 2 NO 0 58.5 673
10:07:50 18 1004 198 7 SW 0 58 669
10:10:50 18 1005 198 6 NW 0 57.8 679
10:13:48 18 1005 198 2 N 0 58.4 679
10:16:47 18 1005 199 2 O 0 58.1 674
10:19:48 18 1005 200 5 N 0 56.4 667
10:22:50 18 1005 200 3 NO 0 58.6 668
10:25:48 19 1004 199 5 NO 0 59 665
10:28:50 19 1004 198 6 NO 0 58.9 659
10:31:50 19 1005 197 2 O 0 59.6 656
10:34:51 19 1004 197 5 NW 0 58.5 659
10:37:48 19 1005 197 6 O 0 57.3 661
10:40:47 19 1004 197 6 W 0 57.7 659
10:43:49 19 1005 198 4 N 0 60.2 655
10:46:47 19 1005 198 5 S 0 59.7 649
10:49:49 19 1005 199 5 O 0 58 642
10:52:47 19 1005 199 8 NO 0 56.7 638
10:55:48 19 1005 200 2 O 0 55.2 641
10:58:32 18 1005 201 2 NO 0 48.2 647
11:01:47 19 1005 202 4 N 0 57.3 647
11:04:49 20 1005 203 6 NO 0 55.9 635
11:07:48 20 1005 205 9 O 0 54.1 630
11:10:51 20 1005 206 3 NW 0 58 629
11:13:49 20 1004 209 2 SO 0 58.3 629
11:16:47 20 1005 211 9 N 0 57.6 627
11:19:48 20 1005 213 8 N 0 55.3 627
11:22:49 20 1004 216 9 N 0 53.2 629
11:25:46 20 1005 216 4 O 0 52.4 626
11:28:47 21 1006 215 9 NO 0 53.5 633
11:31:49 21 1006 212 6 NW 0 54.4 625
11:34:48 21 1004 207 1 NO 0 52.7 629
11:37:48 21 1005 210 9 N 0 52.2 627
11:40:49 21 1006 212 3 NO 0 52 627
11:43:48 21 1005 213 5 O 0 50.8 624
11:46:47 21 1005 212 4 NO 0 50.7 621
11:49:30 20 1005 216 2 N 0 43.7 609
11:52:47 22 1005 217 1 O 0 49.8 612
11:55:52 22 1005 218 12 N 0 51.6 607
11:58:47 22 1005 217 4 N 0 50.4 609
12:01:51 22 1005 217 9 NO 0 50.2 603
12:04:47 22 1005 218 3 O 0 49.2 607
12:07:50 22 1005 215 6 NO 0 48.2 612
12:10:49 22 1005 217 4 NW 0 51.2 612
12:13:46 22 1006 217 4 N 0 51.5 610
12:16:49 22 1005 218 3 NW 0 51.7 612
12:19:33 21 1005 220 4 NW 0 40 609
12:22:49 23 1004 219 5 O 0 48.2 609
12:25:48 23 1005 221 6 N 0 46.9 602
12:28:50 23 1005 219 8 N 0 46.3 604
12:31:48 23 1006 220 6 N 0 47 607
12:34:49 23 1006 222 5 NO 0 46 608
12:37:51 23 1006 226 8 NO 0 47 604
12:40:52 24 1005 227 3 NW 0 48.1 604
12:43:48 24 1006 226 5 NO 0 48.1 604
12:46:49 24 1006 226 8 N 0 43.7 606
12:49:35 23 1005 228 7 N 0 40 603
12:52:48 23 1005 226 5 N 0 45.8 598
12:55:50 24 1005 223 13 NO 0 43.4 601
12:58:49 23 1006 221 9 N 0 42.9 589
13:01:49 23 1005 223 2 NO 0 43.1 576
13:04:49 23 1005 225 3 NO 0 44.9 582
13:07:51 23 1005 225 3 NW 0 45.3 577
13:10:49 24 1006 225 8 N 0 42.5 582
13:13:50 24 1005 227 3 NW 0 41.8 587
13:16:49 24 1006 229 4 NO 0 42.6 583
13:19:51 24 1005 229 8 NO 0 42.2 588
13:22:48 24 1005 229 2 0 41.4 586
13:25:47 24 1005 229 8 NO 0 41.9 574
13:28:49 24 1005 229 6 N 0 42.5 572
13:31:49 24 1005 230 3 NO 0 43 576
13:34:48 24 1006 230 4 W 0 43 579
13:37:51 24 1005 230 3 NO 0 43.5 583
13:40:50 24 1005 231 2 NW 0 43.9 577
13:43:49 24 1005 231 4 NO 0 44 571
13:46:47 24 1005 229 6 NO 0 43.6 574
13:49:49 24 1006 230 10 NO 0 43.8 574
13:52:47 24 1005 229 10 N 0 43.3 573
13:55:47 24 1005 230 6 N 0 42.1 571
13:58:50 25 1005 232 8 O 0 40.2 565
14:01:48 25 1005 231 6 SO 0 42 571
14:04:48 25 1005 232 3 O 0 42.6 571
14:07:49 25 1006 232 9 N 0 39.2 568
14:10:47 25 1005 233 3 0 40.7 568
14:13:31 24 1005 237 3 NO 0 40 563
14:16:49 25 1005 238 9 NO 0 38.7 565
14:19:50 25 1006 239 4 SO 0 39.3 562
14:22:49 25 1005 239 7 NO 0 38.7 565
14:25:49 25 1005 240 5 NW 0 39.9 565
14:28:47 26 1005 241 2 O 0 40.3 562
14:31:49 26 1005 240 7 NO 0 40.4 559
14:34:46 26 1005 241 9 N 0 41.2 553
14:37:48 26 1005 241 8 NO 0 42.1 558
14:40:49 26 1005 242 8 N 0 38.7 551
14:43:48 26 1005 242 8 NW 0 37.7 550
14:46:47 26 1005 241 3 NO 0 37.7 548
14:49:50 26 1005 242 7 NO 0 41.7 554
14:52:49 26 1006 239 4 NO 0 39.2 555
14:55:47 26 1005 240 7 O 0 39.1 550
14:58:46 25 1005 242 0 O 0 39.1 548
15:01:50 25 1005 242 0 NW 0 42.8 545
15:04:48 25 1005 239 7 N 0 38.6 548
15:07:47 25 1005 239 5 O 0 38.5 544
15:10:52 25 1005 241 2 0 38.9 542
15:13:49 25 1006 241 7 NO 0 39.8 545
15:16:46 25 1005 243 3 N 0 38.3 539
15:19:49 25 1004 244 3 N 0 38.6 535
15:22:49 26 1006 244 4 SO 0 36.6 527
15:25:46 26 1005 243 4 O 0 37 536
15:28:48 26 1005 242 6 N 0 39.1 539
15:31:50 26 1005 243 3 N 0 38.2 538
15:34:49 26 1005 243 10 N 0 37.8 533
15:37:48 26 1005 241 7 N 0 40.3 538
15:40:47 26 1005 239 2 O 0 39.7 530
15:43:48 26 1005 239 3 NW 0 37.9 530
15:46:49 25 1005 236 3 NO 0 40.4 526
15:49:49 25 1005 234 4 NO 0 41.3 530
15:52:48 25 1005 239 6 N 0 41 533
15:55:48 25 1006 245 10 NW 0 40.8 541
15:58:50 26 1005 245 4 N 0 41.6 547
16:01:50 26 1006 238 3 NO 0 40.2 539
16:04:49 26 1004 244 5 N 0 40.1 524
16:07:50 26 1005 240 8 N 0 39.6 527
16:10:50 26 1004 235 4 N 0 38.8 530
16:13:47 25 1006 235 5 N 0 38.7 527
16:16:48 25 1005 233 7 N 0 40.4 521
16:19:51 25 1005 232 7 NW 0 42.2 522
16:22:51 24 1006 237 9 NW 0 43 525
16:25:48 24 1005 240 3 O 0 44.8 528
16:28:49 24 1005 239 9 0 45.8 513
16:31:47 24 1005 240 8 O 0 45.9 512
16:34:46 24 1004 243 2 N 0 44.7 510
16:37:50 25 1005 243 2 NO 0 43.7 500
16:40:49 25 1005 245 12 W 0 44.3 497
16:43:49 26 1005 237 11 W 0 42.2 500
16:46:50 25 1005 233 5 W 0 42.2 503
16:49:49 24 1005 242 6 NW 0 43.6 501
16:52:46 24 1005 238 4 N 0 44.7 500
16:55:46 25 1005 245 2 N 0 46.7 492
16:58:32 24 1005 238 1 NW 0 40 495
17:01:50 25 1005 245 6 NO 0 43.5 489
17:04:47 25 1004 244 4 N 0 44.6 492
17:07:50 26 1005 243 7 O 0 44.5 495
17:10:49 26 1005 244 1 NW 0 44 492
17:13:48 26 1005 241 1 SW 0 43.2 483
17:16:46 26 1005 240 3 N 0 42.1 483
17:19:48 25 1005 241 1 NO 0 43.3 490
17:22:49 25 1006 245 3 NW 0 43.7 495
17:25:48 25 1005 247 8 NW 0 42.3 498
17:28:48 26 1005 247 7 NO 0 42.2 492
17:31:46 27 1005 246 7 N 0 40.9 495
17:34:47 27 1005 247 7 N 0 40.4 492
17:37:49 27 1004 247 6 NW 0 39.5 489
17:40:48 28 1005 247 5 NO 0 38 489
17:43:47 28 1004 247 2 0 37.2 485
17:46:49 28 1005 247 4 O 0 36.6 489
17:49:49 29 1005 247 3 N 0 35.9 486
17:52:48 29 1004 247 3 O 0 35.6 492
17:55:49 28 1004 245 6 NW 0 35.2 486
17:58:48 28 1004 247 4 N 0 35.4 486
18:01:49 28 1004 246 2 NO 0 36 486
18:04:47 27 1004 247 3 N 0 36.8 489
18:07:49 27 1004 246 4 N 0 36.9 492
18:10:48 27 1005 245 5 N 0 37.9 500
18:13:48 27 1005 246 7 NO 0 37.6 512
18:16:48 27 1005 247 2 SW 0 37.3 518
18:19:47 28 1004 247 8 N 0 35.4 521
18:22:48 28 1005 246 1 S 0 35.7 538
18:25:48 28 1004 247 7 O 0 36.1 545
18:28:50 28 1004 246 8 NO 0 35.6 550
18:31:48 28 1004 246 0 N 0 35.7 550
18:34:47 28 1004 246 3 N 0 34.7 544
18:37:48 29 1004 246 0 O 0 34.4 556
18:40:47 28 1004 246 4 N 0 34.4 553
18:43:48 28 1004 246 1 NO 0 33.3 554
18:46:52 28 1004 246 2 NW 0 34.6 553
18:49:49 27 1004 246 1 NO 0 35.1 562
18:52:49 26 1005 243 1 NO 0 35.7 571
18:55:52 25 1004 232 3 NW 0 39.5 577
18:58:47 24 1005 219 4 N 0 42.1 576
19:01:48 23 1004 218 4 N 0 42.3 583
19:04:50 23 1005 215 1 NO 0 43.2 591
19:07:47 23 1004 214 7 N 0 44.3 589
19:10:46 23 1004 224 6 N 0 44.9 595
19:13:49 22 1004 213 6 N 0 45.2 601
19:16:47 22 1004 213 3 N 0 45.7 604
19:19:50 22 1004 217 0 N 0 46.9 604
19:22:50 22 1005 212 1 NO 0 46.9 609
19:25:47 22 1005 168 2 NO 0 46.9 621
19:28:48 22 1005 168 4 N 0 47.2 623
19:31:50 22 1005 220 0 N 0 47.2 624
19:34:50 22 1005 213 2 NO 0 47.5 603
19:37:50 22 1005 207 0 N 0 47.5 574
19:40:51 22 1004 206 0 SO 0 48.3 568
19:43:47 21 1005 205 2 N 0 49.1 574
19:46:48 21 1004 204 2 NO 0 49.5 582
19:49:49 21 1004 203 1 N 0 49 588
19:52:46 21 1005 202 0 O 0 49.2 591
19:55:49 21 1005 201 0 N 0 49.4 600
19:58:50 21 1005 200 1 NW 0 49.7 607
20:01:48 21 1005 199 0 O 0 49.6 615
20:04:48 21 1005 199 0 NW 0 49.4 619
20:07:49 21 1004 197 1 S 0 50.2 621
20:10:49 21 1004 195 1 N 0 50.9 626
20:13:53 21 1005 194 1 NO 0 51 624
20:16:50 21 1005 193 1 NO 0 51.3 630
20:19:48 21 1004 191 2 N 0 51.6 638
20:22:49 21 1005 189 3 NO 0 51.4 648
20:25:47 21 1005 187 1 N 0 52.2 659
20:28:49 21 1004 185 0 O 0 52.8 659
20:31:48 20 1004 183 1 O 0 52.6 661
20:34:48 20 1005 181 3 NO 0 53.4 653
20:37:49 20 1005 179 0 O 0 53.9 658
20:40:49 20 1006 178 1 NO 0 53.6 664
20:43:48 20 1005 176 2 O 0 52.8 667
20:46:50 20 1005 175 1 NO 0 52.2 677
20:49:51 20 1004 172 3 NW 0 51.6 689
20:52:49 20 1005 168 1 NO 0 50.7 685
20:55:47 20 1005 162 1 N 0 50.7 685
20:58:48 20 1006 157 0 NO 0 50.6 692
21:01:49 20 1005 151 0 NW 0 50.2 697
21:04:47 20 1005 145 3 NW 0 49.8 700
21:07:50 19 1006 139 1 NO 0 49.6 697
21:10:48 19 1005 134 2 NW 0 49.4 697
21:13:49 19 1005 127 4 NO 0 49.7 700
21:16:50 19 1005 119 0 NO 0 49.9 709
21:19:48 19 1005 110 0 N 0 50.3 715
21:22:50 19 1005 101 1 NO 0 50.7 724
21:25:46 19 1005 93 0 N 0 51.2 717
21:28:49 18 1005 84 0 NW 0 51.6 724
21:31:49 18 1006 74 0 NO 0 51.9 721
21:34:47 18 1005 65 1 NO 0 52.3 736
21:37:49 18 1006 56 1 NO 0 53.4 738
21:40:46 18 1006 47 1 N 0 53.8 741
21:43:46 18 1006 39 3 N 0 54.3 742
21:46:48 18 1005 18 1 NW 0 54.8 741
21:49:47 17 1006 14 1 NO 0 55.7 585
21:52:48 17 1005 21 3 N 0 56.1 466
21:55:46 17 1006 16 2 O 0 56.5 425
21:58:46 17 1006 12 1 NO 0 56.3 415
22:01:49 17 1005 10 1 N 0 56.3 416
22:04:47 17 1006 8 2 W 0 56.2 439
22:07:49 17 1006 6 2 NO 0 56.1 453
22:10:49 17 1006 5 1 NW 0 56.5 473
22:13:46 17 1006 4 1 NO 0 56.6 486
22:16:48 17 1006 3 2 NO 0 57.1 493
22:19:47 17 1006 3 0 NO 0 57.6 507
22:22:47 17 1006 3 0 O 0 58.2 521
22:25:50 17 1006 3 2 NO 0 58.7 536
22:28:48 17 1006 0 3 NW 0 59.2 539
22:31:45 17 1006 0 1 N 0 59.4 550
22:34:45 17 1006 0 2 0 59.8 554
22:37:47 17 1006 0 1 N 0 60.1 561
22:40:49 17 1006 0 0 NO 0 60.4 565
22:43:47 17 1006 0 3 0 60.8 575
22:46:48 17 1005 0 4 NO 0 61.1 577
22:49:48 17 1006 0 1 NO 0 61.6 583
22:52:45 17 1006 0 3 N 0 61.6 586
22:55:47 16 1006 0 2 NO 0 62.1 595
22:58:50 16 1005 0 0 NO 0 62.6 609
23:01:48 16 1006 0 1 NO 0 62.9 611
23:04:48 16 1005 0 2 NO 0 63.2 612
23:07:47 16 1006 0 1 NW 0 63.6 618
23:10:48 16 1006 0 3 N 0 63.6 627
23:13:47 16 1006 0 3 NO 0 64.1 638
23:16:47 16 1006 0 5 N 0 64.3 636
23:19:47 16 1006 0 3 NO 0 64.4 635
23:22:46 16 1005 0 3 NO 0 64.8 644
23:25:48 16 1006 0 7 NO 0 65.6 641
23:28:48 16 1006 0 1 O 0 66.2 652
23:31:47 15 1005 0 0 N 0 66.3 659
23:34:49 15 1006 0 1 NO 0 66.5 661
23:37:46 15 1006 0 1 NO 0 67.6 661
23:40:47 15 1006 0 2 NO 0 68.9 657
23:43:46 15 1005 0 1 0 69.5 660
23:46:46 15 1005 0 0 O 0 70.5 662
23:49:46 15 1006 0 3 O 0 70.6 665
23:52:49 15 1006 0 1 NO 0 70.6 668
23:55:45 15 1005 0 1 N 0 70.9 677
23:58:47 15 1005 0 2 N 0 70.9 677

Letzte Änderung : 22-Jul-2022
Copyright Jens Köhler, Wolfsburg, Obere Dorfstraße 10d